RJAN(METAR)
05/21 16:00
RJAN 210700Z 09007KT 9999 RA FEW020 SCT037 BKNXXX 19/15 Q1008 RMK
A2978=
戻る
トップページへ戻る
IMOC Co,.Ltd.